createdAt,value
2018-06-09T00:00:45.438Z,18.32
2018-06-09T00:01:45.375Z,18.21
2018-06-09T00:02:45.338Z,18.19
2018-06-09T00:03:45.234Z,18.04
2018-06-09T00:04:45.155Z,18.09
2018-06-09T00:05:45.087Z,18.09
2018-06-09T00:06:45.030Z,18.10
2018-06-09T00:07:44.943Z,18.11
2018-06-09T00:08:44.866Z,18.13
2018-06-09T00:09:44.802Z,18.06
2018-06-09T00:10:44.726Z,18.13
2018-06-09T00:11:44.663Z,18.06
2018-06-09T00:12:44.578Z,18.06
2018-06-09T00:13:44.515Z,17.94
2018-06-09T00:14:44.437Z,17.94
2018-06-09T00:15:44.372Z,17.89
2018-06-09T00:16:44.296Z,17.95
2018-06-09T00:17:44.229Z,17.98
2018-06-09T00:18:44.153Z,17.95
2018-06-09T00:19:44.092Z,17.82
2018-06-09T00:20:44.008Z,17.70
2018-06-09T00:21:43.949Z,17.66
2018-06-09T00:22:43.867Z,17.70
2018-06-09T00:23:43.812Z,17.67
2018-06-09T00:24:43.726Z,17.54
2018-06-09T00:25:43.660Z,17.64
2018-06-09T00:26:43.579Z,17.53
2018-06-09T00:27:43.513Z,17.51
2018-06-09T00:28:43.436Z,17.64
2018-06-09T00:29:43.377Z,17.57
2018-06-09T00:30:43.296Z,17.64
2018-06-09T00:31:43.232Z,17.57
2018-06-09T00:32:43.151Z,17.66
2018-06-09T00:33:43.084Z,17.70
2018-06-09T00:34:43.003Z,17.67
2018-06-09T00:35:42.941Z,17.71
2018-06-09T00:36:42.860Z,17.71
2018-06-09T00:37:42.799Z,17.69
2018-06-09T00:38:42.723Z,17.81
2018-06-09T00:39:42.649Z,17.70
2018-06-09T00:40:42.579Z,17.69
2018-06-09T00:41:42.515Z,17.64
2018-06-09T00:42:42.430Z,17.63
2018-06-09T00:43:42.368Z,17.66
2018-06-09T00:44:42.284Z,17.57
2018-06-09T00:45:42.222Z,17.53
2018-06-09T00:46:42.140Z,17.35
2018-06-09T00:47:42.079Z,17.33
2018-06-09T00:48:41.998Z,17.26
2018-06-09T00:49:41.938Z,17.29
2018-06-09T00:50:41.855Z,17.30
2018-06-09T00:51:41.796Z,17.13
2018-06-09T00:52:41.710Z,17.23
2018-06-09T00:53:41.647Z,17.13
2018-06-09T00:54:41.565Z,17.23
2018-06-09T00:55:41.500Z,17.15
2018-06-09T00:56:41.425Z,17.15
2018-06-09T00:57:41.361Z,17.14
2018-06-09T00:58:41.285Z,17.14
2018-06-09T00:59:41.218Z,17.18
2018-06-09T01:00:41.134Z,17.20
2018-06-09T01:01:41.069Z,17.20
2018-06-09T01:02:40.991Z,17.20
2018-06-09T01:03:40.928Z,17.21
2018-06-09T01:04:40.851Z,17.26
2018-06-09T01:05:40.782Z,17.28
2018-06-09T01:06:40.712Z,17.17
2018-06-09T01:07:40.638Z,17.20
2018-06-09T01:08:40.558Z,17.29
2018-06-09T01:09:40.503Z,17.29
2018-06-09T01:10:40.411Z,17.32
2018-06-09T01:11:41.354Z,17.36
2018-06-09T01:12:40.270Z,17.25
2018-06-09T01:13:40.204Z,17.43
2018-06-09T01:14:40.126Z,17.47
2018-06-09T01:15:40.057Z,17.48
2018-06-09T01:16:39.987Z,17.48
2018-06-09T01:17:39.921Z,17.55
2018-06-09T01:18:39.839Z,17.50
2018-06-09T01:19:39.773Z,17.53
2018-06-09T01:20:39.690Z,17.48
2018-06-09T01:21:39.627Z,17.53
2018-06-09T01:22:39.549Z,17.51
2018-06-09T01:23:39.481Z,17.57
2018-06-09T01:24:39.406Z,17.48
2018-06-09T01:25:39.339Z,17.46
2018-06-09T01:26:39.260Z,17.47
2018-06-09T01:27:39.194Z,17.51
2018-06-09T01:28:39.125Z,17.39
2018-06-09T01:29:39.057Z,17.38
2018-06-09T01:30:38.972Z,17.29
2018-06-09T01:31:38.906Z,17.21
2018-06-09T01:32:38.834Z,17.25
2018-06-09T01:33:38.760Z,17.13
2018-06-09T01:34:38.683Z,17.15
2018-06-09T01:35:38.619Z,17.11
2018-06-09T01:36:38.535Z,17.07
2018-06-09T01:37:38.471Z,17.14
2018-06-09T01:38:38.393Z,17.11
2018-06-09T01:39:38.318Z,17.07
2018-06-09T01:40:38.257Z,17.05
2018-06-09T01:41:38.174Z,17.14
2018-06-09T01:42:38.107Z,17.13
2018-06-09T01:43:38.032Z,17.10
2018-06-09T01:44:37.967Z,17.00
2018-06-09T01:45:37.883Z,17.07
2018-06-09T01:46:37.823Z,17.05
2018-06-09T01:47:37.740Z,16.96
2018-06-09T01:48:37.684Z,17.05
2018-06-09T01:49:37.595Z,16.93
2018-06-09T01:50:37.528Z,16.99
2018-06-09T01:51:37.449Z,16.95
2018-06-09T01:52:37.387Z,16.96
2018-06-09T01:53:37.304Z,16.92
2018-06-09T01:54:37.252Z,16.88
2018-06-09T01:55:37.160Z,16.88
2018-06-09T01:56:37.095Z,16.90
2018-06-09T01:57:37.016Z,16.98
2018-06-09T01:58:36.959Z,16.99
2018-06-09T01:59:36.872Z,17.00
2018-06-09T02:00:36.813Z,17.02
2018-06-09T02:01:36.726Z,17.00
2018-06-09T02:02:36.660Z,17.02
2018-06-09T02:03:36.588Z,16.98
2018-06-09T02:04:36.515Z,17.07
2018-06-09T02:05:36.436Z,17.07
2018-06-09T02:06:36.373Z,17.03
2018-06-09T02:07:36.292Z,17.14
2018-06-09T02:08:36.231Z,17.08
2018-06-09T02:09:36.145Z,17.11
2018-06-09T02:10:36.078Z,17.07
2018-06-09T02:11:36.002Z,17.13
2018-06-09T02:12:35.936Z,17.10
2018-06-09T02:13:35.860Z,17.03
2018-06-09T02:14:35.797Z,16.88
2018-06-09T02:15:35.711Z,16.89
2018-06-09T02:16:36.650Z,16.77
2018-06-09T02:17:35.567Z,16.84
2018-06-09T02:18:35.501Z,16.77
2018-06-09T02:19:35.423Z,16.73
2018-06-09T02:20:35.366Z,16.66
2018-06-09T02:21:35.275Z,16.77
2018-06-09T02:22:35.214Z,16.74
2018-06-09T02:23:35.130Z,16.73
2018-06-09T02:24:35.061Z,16.75
2018-06-09T02:25:34.985Z,16.73
2018-06-09T02:26:34.921Z,16.73
2018-06-09T02:27:34.840Z,16.74
2018-06-09T02:28:34.771Z,16.75
2018-06-09T02:29:34.696Z,16.71
2018-06-09T02:30:34.630Z,16.62
2018-06-09T02:31:34.551Z,16.65
2018-06-09T02:32:34.483Z,16.65
2018-06-09T02:33:34.403Z,16.56
2018-06-09T02:34:34.342Z,16.52
2018-06-09T02:35:34.257Z,16.55
2018-06-09T02:36:34.200Z,16.45
2018-06-09T02:37:34.114Z,16.45
2018-06-09T02:38:34.054Z,16.48
2018-06-09T02:39:33.968Z,16.52
2018-06-09T02:40:33.906Z,16.41
2018-06-09T02:41:33.825Z,16.42
2018-06-09T02:42:33.761Z,16.59
2018-06-09T02:43:33.679Z,16.52
2018-06-09T02:44:33.611Z,16.53
2018-06-09T02:45:33.535Z,16.57
2018-06-09T02:46:33.465Z,16.62
2018-06-09T02:47:33.388Z,16.67
2018-06-09T02:48:33.322Z,16.67
2018-06-09T02:49:33.243Z,16.66
2018-06-09T02:50:33.175Z,16.67
2018-06-09T02:51:33.094Z,16.59
2018-06-09T02:52:33.028Z,16.67
2018-06-09T02:53:32.950Z,16.63
2018-06-09T02:54:32.889Z,16.62
2018-06-09T02:55:32.807Z,16.60
2018-06-09T02:56:32.743Z,16.65
2018-06-09T02:57:32.658Z,16.71
2018-06-09T02:58:32.596Z,16.66
2018-06-09T02:59:32.513Z,16.66
2018-06-09T03:00:33.449Z,16.71
2018-06-09T03:01:32.367Z,16.73
2018-06-09T03:02:32.306Z,16.75
2018-06-09T03:03:32.247Z,16.67
2018-06-09T03:04:32.161Z,16.70
2018-06-09T03:05:32.073Z,16.73
2018-06-09T03:06:32.013Z,16.67
2018-06-09T03:07:31.930Z,16.56
2018-06-09T03:08:31.861Z,16.45
2018-06-09T03:09:31.786Z,16.45
2018-06-09T03:10:31.719Z,16.34
2018-06-09T03:11:31.640Z,16.30
2018-06-09T03:12:31.579Z,16.25
2018-06-09T03:13:31.496Z,16.29
2018-06-09T03:14:31.437Z,16.20
2018-06-09T03:15:31.352Z,16.35
2018-06-09T03:16:31.281Z,16.42
2018-06-09T03:17:31.201Z,16.41
2018-06-09T03:18:31.135Z,16.35
2018-06-09T03:19:31.062Z,16.34
2018-06-09T03:20:31.003Z,16.41
2018-06-09T03:21:30.913Z,16.41
2018-06-09T03:22:30.850Z,16.41
2018-06-09T03:23:30.766Z,16.47
2018-06-09T03:24:30.698Z,16.48
2018-06-09T03:25:30.645Z,16.42
2018-06-09T03:26:30.552Z,16.45
2018-06-09T03:27:30.472Z,16.45
2018-06-09T03:28:30.404Z,16.45
2018-06-09T03:29:30.326Z,16.45
2018-06-09T03:30:30.259Z,16.53
2018-06-09T03:31:30.187Z,16.55
2018-06-09T03:32:30.145Z,16.53
2018-06-09T03:33:30.033Z,16.60
2018-06-09T03:34:29.970Z,16.63
2018-06-09T03:35:29.885Z,16.66
2018-06-09T03:36:29.824Z,16.71
2018-06-09T03:37:29.744Z,16.74
2018-06-09T03:38:29.680Z,16.60
2018-06-09T03:39:29.599Z,16.65
2018-06-09T03:40:30.533Z,16.62
2018-06-09T03:41:29.450Z,16.57
2018-06-09T03:42:29.384Z,16.53
2018-06-09T03:43:29.303Z,16.52
2018-06-09T03:44:29.238Z,16.48
2018-06-09T03:45:29.159Z,16.48
2018-06-09T03:46:29.097Z,16.37
2018-06-09T03:47:29.018Z,16.29
2018-06-09T03:48:28.944Z,16.23
2018-06-09T03:49:28.868Z,16.12
2018-06-09T03:50:28.838Z,16.12
2018-06-09T03:51:28.720Z,16.07
2018-06-09T03:52:28.657Z,16.04
2018-06-09T03:53:28.575Z,16.08
2018-06-09T03:54:28.509Z,16.08
2018-06-09T03:55:28.431Z,16.16
2018-06-09T03:56:28.361Z,16.18
2018-06-09T03:57:28.284Z,16.15
2018-06-09T03:58:28.216Z,16.26
2018-06-09T03:59:28.137Z,16.25
2018-06-09T04:00:28.068Z,16.18
2018-06-09T04:01:28.003Z,16.18
2018-06-09T04:02:27.928Z,16.15
2018-06-09T04:03:28.666Z,16.15
2018-06-09T04:04:27.786Z,16.23
2018-06-09T04:05:27.699Z,16.15
2018-06-09T04:06:27.628Z,16.20
2018-06-09T04:07:27.550Z,16.22
2018-06-09T04:08:27.485Z,16.23
2018-06-09T04:09:27.404Z,16.26
2018-06-09T04:10:27.338Z,16.34
2018-06-09T04:11:27.259Z,16.35
2018-06-09T04:12:27.194Z,16.37
2018-06-09T04:13:27.113Z,16.41
2018-06-09T04:14:27.045Z,16.45
2018-06-09T04:15:26.965Z,16.45
2018-06-09T04:16:27.992Z,16.52
2018-06-09T04:17:26.822Z,16.52
2018-06-09T04:18:26.777Z,16.52
2018-06-09T04:19:26.667Z,16.52
2018-06-09T04:20:26.606Z,16.50
2018-06-09T04:21:26.529Z,16.47
2018-06-09T04:22:26.497Z,16.44
2018-06-09T04:23:26.383Z,16.47
2018-06-09T04:24:26.406Z,16.53
2018-06-09T04:25:26.234Z,16.55
2018-06-09T04:26:26.186Z,16.60
2018-06-09T04:27:26.086Z,16.59
2018-06-09T04:28:26.158Z,16.62
2018-06-09T04:29:25.951Z,16.65
2018-06-09T04:30:25.935Z,16.71
2018-06-09T04:31:25.796Z,16.73
2018-06-09T04:32:25.745Z,16.80
2018-06-09T04:33:25.648Z,16.85
2018-06-09T04:34:25.582Z,16.85
2018-06-09T04:35:25.504Z,16.88
2018-06-09T04:36:25.465Z,16.88
2018-06-09T04:37:25.356Z,16.98
2018-06-09T04:38:25.374Z,16.95
2018-06-09T04:39:25.212Z,16.93
2018-06-09T04:40:25.187Z,17.03
2018-06-09T04:41:25.067Z,17.13
2018-06-09T04:42:25.096Z,17.08
2018-06-09T04:43:24.918Z,17.13
2018-06-09T04:44:24.904Z,17.14
2018-06-09T04:45:24.771Z,17.20
2018-06-09T04:46:24.815Z,17.26
2018-06-09T04:47:24.628Z,17.17
2018-06-09T04:48:24.625Z,17.29
2018-06-09T04:49:24.483Z,17.28
2018-06-09T04:50:24.432Z,17.38
2018-06-09T04:51:24.332Z,17.33
2018-06-09T04:52:24.269Z,17.48
2018-06-09T04:53:24.190Z,17.44
2018-06-09T04:54:24.126Z,17.53
2018-06-09T04:55:24.047Z,17.55
2018-06-09T04:56:23.980Z,17.60
2018-06-09T04:57:23.895Z,17.71
2018-06-09T04:58:23.880Z,17.66
2018-06-09T04:59:23.757Z,17.67
2018-06-09T05:00:23.687Z,17.71
2018-06-09T05:01:23.607Z,17.70
2018-06-09T05:02:23.540Z,17.71
2018-06-09T05:03:23.460Z,17.81
2018-06-09T05:04:23.398Z,17.77
2018-06-09T05:05:23.315Z,17.82
2018-06-09T05:06:23.251Z,17.84
2018-06-09T05:07:23.175Z,17.94
2018-06-09T05:08:23.106Z,17.89
2018-06-09T05:09:23.023Z,17.98
2018-06-09T05:10:22.972Z,17.98
2018-06-09T05:11:22.880Z,17.96
2018-06-09T05:12:22.816Z,18.06
2018-06-09T05:13:22.732Z,18.13
2018-06-09T05:14:22.672Z,18.16
2018-06-09T05:15:22.588Z,18.16
2018-06-09T05:16:22.524Z,18.16
2018-06-09T05:17:22.447Z,18.18
2018-06-09T05:18:22.402Z,18.14
2018-06-09T05:19:22.296Z,18.29
2018-06-09T05:20:22.233Z,18.24
2018-06-09T05:21:22.155Z,18.31
2018-06-09T05:22:22.088Z,18.34
2018-06-09T05:23:22.008Z,18.35
2018-06-09T05:24:21.942Z,18.43
2018-06-09T05:25:21.863Z,18.44
2018-06-09T05:26:21.845Z,18.53
2018-06-09T05:27:21.721Z,18.58
2018-06-09T05:28:21.657Z,18.58
2018-06-09T05:29:21.573Z,18.67
2018-06-09T05:30:21.513Z,18.67
2018-06-09T05:31:21.431Z,18.79
2018-06-09T05:32:21.366Z,18.80
2018-06-09T05:33:21.283Z,18.87
2018-06-09T05:34:21.224Z,18.90
2018-06-09T05:35:21.138Z,18.92
2018-06-09T05:36:21.078Z,19.02
2018-06-09T05:37:20.997Z,19.08
2018-06-09T05:38:20.933Z,19.09
2018-06-09T05:39:20.849Z,19.23
2018-06-09T05:40:20.788Z,19.17
2018-06-09T05:41:20.709Z,19.28
2018-06-09T05:42:20.647Z,19.36
2018-06-09T05:43:20.562Z,19.27
2018-06-09T05:44:20.500Z,19.35
2018-06-09T05:45:20.421Z,19.43
2018-06-09T05:46:20.358Z,19.45
2018-06-09T05:47:20.274Z,19.54
2018-06-09T05:48:21.217Z,19.63
2018-06-09T05:49:20.130Z,19.64
2018-06-09T05:50:20.066Z,19.71
2018-06-09T05:51:19.987Z,19.76
2018-06-09T05:52:19.941Z,19.86
2018-06-09T05:53:19.856Z,19.93
2018-06-09T05:54:19.783Z,19.97
2018-06-09T05:55:19.702Z,20.03
2018-06-09T05:56:19.639Z,20.13
2018-06-09T05:57:19.556Z,20.01
2018-06-09T05:58:19.496Z,20.15
2018-06-09T05:59:24.527Z,20.20
2018-06-09T06:00:19.346Z,20.35
2018-06-09T06:01:19.272Z,20.26
2018-06-09T06:02:19.209Z,20.35
2018-06-09T06:03:19.128Z,20.40
2018-06-09T06:04:19.068Z,20.49
2018-06-09T06:05:18.986Z,20.50
2018-06-09T06:06:18.921Z,20.62
2018-06-09T06:07:18.842Z,20.57
2018-06-09T06:08:18.786Z,20.62
2018-06-09T06:09:18.709Z,20.62
2018-06-09T06:10:18.642Z,20.64
2018-06-09T06:11:18.559Z,20.80
2018-06-09T06:12:18.496Z,20.74
2018-06-09T06:13:18.416Z,20.80
2018-06-09T06:14:18.363Z,20.86
2018-06-09T06:15:18.275Z,20.91
2018-06-09T06:16:18.218Z,20.91
2018-06-09T06:17:18.132Z,20.96
2018-06-09T06:18:18.067Z,21.06
2018-06-09T06:19:17.988Z,21.20
2018-06-09T06:20:17.924Z,21.17
2018-06-09T06:21:17.847Z,21.27
2018-06-09T06:22:17.785Z,21.29
2018-06-09T06:23:17.706Z,21.39
2018-06-09T06:24:17.650Z,21.45
2018-06-09T06:25:17.565Z,21.42
2018-06-09T06:26:17.499Z,21.56
2018-06-09T06:27:17.421Z,21.49
2018-06-09T06:28:17.364Z,21.67
2018-06-09T06:29:17.279Z,21.70
2018-06-09T06:30:17.218Z,21.78
2018-06-09T06:31:17.141Z,21.78
2018-06-09T06:32:17.076Z,21.82
2018-06-09T06:33:16.998Z,21.91
2018-06-09T06:34:16.936Z,21.97
2018-06-09T06:35:16.860Z,22.02
2018-06-09T06:36:16.797Z,22.02
2018-06-09T06:37:16.720Z,22.02
2018-06-09T06:38:16.655Z,22.10
2018-06-09T06:39:16.573Z,22.16
2018-06-09T06:40:16.512Z,22.19
2018-06-09T06:41:16.436Z,22.26
2018-06-09T06:42:16.375Z,22.32
2018-06-09T06:43:16.293Z,22.39
2018-06-09T06:44:16.232Z,22.46
2018-06-09T06:45:16.154Z,22.50
2018-06-09T06:46:16.096Z,22.50
2018-06-09T06:47:16.038Z,22.54
2018-06-09T06:48:15.952Z,22.69
2018-06-09T06:49:15.871Z,22.62
2018-06-09T06:50:15.833Z,22.63
2018-06-09T06:51:15.739Z,22.69
2018-06-09T06:52:15.673Z,22.75
2018-06-09T06:53:15.596Z,22.81
2018-06-09T06:54:15.532Z,22.87
2018-06-09T06:55:15.458Z,22.90
2018-06-09T06:56:15.393Z,22.99
2018-06-09T06:57:15.321Z,23.08
2018-06-09T06:58:15.256Z,23.08
2018-06-09T06:59:15.176Z,23.17
2018-06-09T07:00:15.119Z,23.12
2018-06-09T07:01:15.036Z,23.22
2018-06-09T07:02:14.976Z,23.20
2018-06-09T07:03:14.897Z,23.37
2018-06-09T07:04:14.834Z,23.42
2018-06-09T07:05:14.762Z,23.38
2018-06-09T07:06:14.699Z,23.48
2018-06-09T07:07:14.621Z,23.45
2018-06-09T07:08:14.559Z,23.49
2018-06-09T07:09:14.487Z,23.58
2018-06-09T07:10:14.425Z,23.67
2018-06-09T07:11:14.345Z,23.68
2018-06-09T07:12:14.287Z,23.67
2018-06-09T07:13:14.206Z,23.82
2018-06-09T07:14:14.145Z,23.86
2018-06-09T07:15:14.068Z,23.89
2018-06-09T07:16:14.004Z,23.87
2018-06-09T07:17:13.931Z,23.93
2018-06-09T07:18:13.880Z,24.08
2018-06-09T07:19:13.795Z,24.12
2018-06-09T07:20:13.729Z,24.12
2018-06-09T07:21:13.657Z,24.17
2018-06-09T07:22:13.602Z,24.25
2018-06-09T07:23:13.517Z,24.27
2018-06-09T07:24:13.462Z,24.37
2018-06-09T07:25:13.385Z,24.47
2018-06-09T07:26:13.321Z,24.50
2018-06-09T07:27:13.244Z,24.59
2018-06-09T07:28:13.180Z,24.53
2018-06-09T07:29:13.108Z,24.56
2018-06-09T07:30:13.046Z,24.67
2018-06-09T07:31:12.972Z,24.75
2018-06-09T07:32:12.909Z,24.85
2018-06-09T07:33:12.833Z,24.94
2018-06-09T07:34:12.773Z,24.91
2018-06-09T07:35:12.749Z,25.04
2018-06-09T07:36:12.638Z,25.08
2018-06-09T07:37:12.568Z,25.01
2018-06-09T07:38:12.501Z,25.05
2018-06-09T07:39:12.424Z,25.09
2018-06-09T07:40:12.367Z,25.15
2018-06-09T07:41:12.292Z,25.28
2018-06-09T07:42:12.240Z,25.27
2018-06-09T07:43:12.152Z,25.47
2018-06-09T07:44:12.094Z,25.42
2018-06-09T07:45:12.026Z,25.57
2018-06-09T07:46:11.963Z,25.62
2018-06-09T07:47:11.885Z,25.68
2018-06-09T07:48:11.826Z,25.78
2018-06-09T07:49:11.751Z,25.89
2018-06-09T07:50:11.697Z,25.92
2018-06-09T07:51:11.618Z,26.08
2018-06-09T07:52:11.567Z,26.20
2018-06-09T07:53:11.485Z,26.12
2018-06-09T07:54:11.499Z,26.28
2018-06-09T07:55:11.348Z,26.31
2018-06-09T07:56:11.288Z,26.32
2018-06-09T07:57:11.221Z,26.42
2018-06-09T07:58:11.157Z,26.40
2018-06-09T07:59:11.082Z,26.43
2018-06-09T08:00:11.020Z,26.43
2018-06-09T08:01:10.945Z,26.46
2018-06-09T08:02:10.893Z,26.52
2018-06-09T08:03:10.814Z,26.58
2018-06-09T08:04:10.748Z,26.61
2018-06-09T08:05:10.681Z,26.62
2018-06-09T08:06:10.623Z,26.58
2018-06-09T08:07:10.548Z,26.58
2018-06-09T08:08:10.752Z,26.60
2018-06-09T08:09:10.420Z,26.64
2018-06-09T08:10:10.358Z,26.65
2018-06-09T08:11:10.286Z,26.64
2018-06-09T08:12:10.337Z,26.71
2018-06-09T08:13:10.155Z,26.84
2018-06-09T08:14:10.144Z,26.87
2018-06-09T08:15:10.018Z,27.07
2018-06-09T08:16:10.058Z,27.21
2018-06-09T08:17:09.889Z,27.16
2018-06-09T08:18:09.873Z,27.21
2018-06-09T08:19:09.762Z,27.23
2018-06-09T08:20:09.783Z,27.32
2018-06-09T08:21:09.629Z,27.42
2018-06-09T08:22:09.593Z,27.54
2018-06-09T08:23:09.496Z,27.64
2018-06-09T08:24:09.502Z,27.64
2018-06-09T08:25:09.363Z,27.45
2018-06-09T08:26:09.412Z,27.57
2018-06-09T08:27:09.231Z,27.65
2018-06-09T08:28:09.220Z,27.80
2018-06-09T08:29:09.160Z,27.80
2018-06-09T08:30:09.130Z,27.95
2018-06-09T08:31:08.970Z,27.97
2018-06-09T08:32:08.940Z,28.11
2018-06-09T08:33:08.845Z,28.16
2018-06-09T08:34:08.853Z,28.24
2018-06-09T08:35:08.712Z,28.19
2018-06-09T08:36:08.682Z,28.16
2018-06-09T08:37:08.577Z,28.16
2018-06-09T08:38:08.573Z,28.20
2018-06-09T08:39:08.447Z,28.19
2018-06-09T08:40:08.493Z,28.32
2018-06-09T08:41:08.321Z,28.26
2018-06-09T08:42:08.302Z,28.22
2018-06-09T08:43:08.191Z,28.31
2018-06-09T08:44:08.130Z,28.44
2018-06-09T08:45:08.109Z,28.36
2018-06-09T08:46:07.997Z,28.41
2018-06-09T08:47:08.021Z,28.43
2018-06-09T08:48:07.865Z,28.46
2018-06-09T08:49:07.825Z,28.49
2018-06-09T08:50:07.738Z,28.46
2018-06-09T08:51:07.740Z,28.59
2018-06-09T08:52:07.605Z,28.57
2018-06-09T08:53:07.652Z,28.63
2018-06-09T08:54:07.484Z,28.76
2018-06-09T08:55:07.465Z,28.90
2018-06-09T08:56:07.351Z,29.03
2018-06-09T08:57:07.377Z,29.10
2018-06-09T08:58:07.219Z,29.18
2018-06-09T08:59:07.187Z,29.23
2018-06-09T09:00:07.096Z,29.23
2018-06-09T09:01:07.091Z,29.19
2018-06-09T09:02:06.966Z,29.25
2018-06-09T09:03:07.053Z,29.25
2018-06-09T09:04:06.842Z,29.40
2018-06-09T09:05:06.814Z,29.32
2018-06-09T09:06:06.713Z,29.43
2018-06-09T09:07:06.722Z,29.53
2018-06-09T09:08:06.580Z,29.55
2018-06-09T09:09:06.638Z,29.69
2018-06-09T09:10:06.459Z,29.66
2018-06-09T09:11:06.445Z,29.66
2018-06-09T09:12:06.325Z,29.73
2018-06-09T09:13:06.358Z,29.59
2018-06-09T09:14:06.200Z,29.77
2018-06-09T09:15:06.165Z,29.53
2018-06-09T09:16:06.070Z,29.46
2018-06-09T09:17:06.073Z,29.21
2018-06-09T09:18:05.949Z,29.18
2018-06-09T09:19:05.991Z,28.80
2018-06-09T09:20:05.822Z,28.91
2018-06-09T09:21:05.756Z,28.88
2018-06-09T09:22:05.693Z,28.93
2018-06-09T09:23:05.713Z,29.00
2018-06-09T09:24:05.563Z,29.13
2018-06-09T09:25:05.621Z,29.01
2018-06-09T09:26:05.439Z,29.13
2018-06-09T09:27:05.429Z,29.28
2018-06-09T09:28:05.310Z,29.37
2018-06-09T09:29:05.341Z,29.53
2018-06-09T09:30:05.193Z,29.66
2018-06-09T09:31:05.158Z,29.73
2018-06-09T09:32:05.080Z,29.83
2018-06-09T09:33:04.998Z,29.97
2018-06-09T09:34:04.935Z,29.96
2018-06-09T09:35:04.977Z,30.15
2018-06-09T09:36:04.806Z,30.26
2018-06-09T09:37:04.783Z,30.34
2018-06-09T09:38:04.683Z,30.39
2018-06-09T09:39:04.693Z,30.36
2018-06-09T09:40:04.553Z,30.26
2018-06-09T09:41:04.488Z,30.11
2018-06-09T09:42:04.511Z,29.78
2018-06-09T09:43:04.368Z,29.47
2018-06-09T09:44:04.422Z,29.28
2018-06-09T09:45:04.241Z,29.32
2018-06-09T09:46:04.232Z,29.47
2018-06-09T09:47:04.115Z,29.48
2018-06-09T09:48:04.150Z,29.53
2018-06-09T09:49:03.990Z,29.44
2018-06-09T09:50:03.952Z,29.50
2018-06-09T09:51:03.867Z,29.44
2018-06-09T09:52:03.866Z,29.44
2018-06-09T09:53:03.741Z,29.48
2018-06-09T09:54:03.776Z,29.40
2018-06-09T09:55:03.616Z,29.40
2018-06-09T09:56:03.591Z,29.22
2018-06-09T09:57:03.489Z,29.37
2018-06-09T09:58:03.497Z,29.51
2018-06-09T09:59:03.365Z,29.55
2018-06-09T10:00:03.407Z,29.69
2018-06-09T10:01:03.242Z,29.55
2018-06-09T10:02:03.178Z,29.47
2018-06-09T10:03:03.119Z,29.63
2018-06-09T10:04:03.128Z,29.80
2018-06-09T10:05:02.996Z,29.95
2018-06-09T10:06:03.038Z,29.97
2018-06-09T10:07:02.866Z,30.19
2018-06-09T10:08:02.847Z,30.36
2018-06-09T10:09:02.741Z,30.37
2018-06-09T10:10:02.758Z,30.55
2018-06-09T10:11:02.618Z,30.55
2018-06-09T10:12:02.675Z,30.36
2018-06-09T10:13:02.493Z,30.48
2018-06-09T10:14:02.441Z,30.46
2018-06-09T10:15:02.493Z,30.57
2018-06-09T10:16:02.311Z,30.67
2018-06-09T10:17:02.297Z,30.50
2018-06-09T10:18:02.184Z,30.39
2018-06-09T10:19:02.204Z,30.24
2018-06-09T10:20:02.061Z,30.36
2018-06-09T10:21:03.039Z,30.33
2018-06-09T10:22:01.936Z,30.50
2018-06-09T10:23:01.922Z,30.65
2018-06-09T10:24:01.810Z,30.40
2018-06-09T10:25:01.838Z,30.48
2018-06-09T10:26:01.693Z,30.30
2018-06-09T10:27:02.671Z,30.36
2018-06-09T10:28:01.563Z,30.39
2018-06-09T10:29:01.558Z,30.46
2018-06-09T10:30:01.449Z,30.55
2018-06-09T10:31:01.471Z,30.62
2018-06-09T10:32:01.317Z,30.72
2018-06-09T10:33:01.280Z,30.77
2018-06-09T10:34:01.201Z,30.89
2018-06-09T10:35:01.137Z,30.85
2018-06-09T10:36:01.095Z,30.89
2018-06-09T10:37:01.007Z,30.79
2018-06-09T10:38:01.008Z,30.89
2018-06-09T10:39:00.884Z,30.99
2018-06-09T10:40:00.917Z,31.16
2018-06-09T10:41:00.760Z,31.09
2018-06-09T10:42:00.701Z,31.16
2018-06-09T10:43:00.735Z,31.16
2018-06-09T10:44:00.578Z,31.29
2018-06-09T10:45:00.542Z,31.27
2018-06-09T10:46:00.451Z,31.39
2018-06-09T10:47:00.455Z,31.39
2018-06-09T10:48:00.336Z,31.44
2018-06-09T10:49:00.376Z,31.55
2018-06-09T10:50:00.202Z,31.48
2018-06-09T10:51:00.170Z,31.58
2018-06-09T10:52:00.082Z,31.64
2018-06-09T10:53:00.087Z,31.66
2018-06-09T10:53:59.961Z,31.67
2018-06-09T10:54:59.998Z,31.46
2018-06-09T10:55:59.833Z,31.53
2018-06-09T10:56:59.808Z,31.53
2018-06-09T10:57:59.712Z,31.66
2018-06-09T10:58:59.719Z,31.68
2018-06-09T10:59:59.590Z,31.79
2018-06-09T11:00:59.631Z,31.78
2018-06-09T11:01:59.464Z,31.63
2018-06-09T11:02:59.439Z,31.68
2018-06-09T11:03:59.345Z,31.66
2018-06-09T11:04:59.281Z,31.49
2018-06-09T11:05:59.222Z,31.49
2018-06-09T11:06:59.263Z,31.21
2018-06-09T11:07:59.096Z,30.87
2018-06-09T11:08:59.070Z,30.68
2018-06-09T11:09:58.976Z,30.68
2018-06-09T11:10:58.983Z,30.56
2018-06-09T11:11:58.852Z,30.59
2018-06-09T11:12:58.893Z,30.75
2018-06-09T11:13:58.730Z,30.90
2018-06-09T11:14:58.703Z,30.97
2018-06-09T11:15:58.611Z,31.07
2018-06-09T11:16:58.614Z,31.08
2018-06-09T11:17:58.481Z,31.26
2018-06-09T11:18:58.526Z,31.23
2018-06-09T11:19:58.361Z,31.36
2018-06-09T11:20:58.335Z,31.33
2018-06-09T11:21:58.239Z,31.26
2018-06-09T11:22:58.249Z,31.42
2018-06-09T11:23:58.116Z,31.53
2018-06-09T11:24:58.157Z,31.51
2018-06-09T11:25:57.994Z,31.52
2018-06-09T11:26:57.968Z,31.66
2018-06-09T11:27:57.870Z,31.87
2018-06-09T11:28:57.878Z,31.84
2018-06-09T11:29:57.749Z,31.99
2018-06-09T11:30:57.789Z,32.17
2018-06-09T11:31:57.630Z,32.31
2018-06-09T11:32:57.601Z,32.31
2018-06-09T11:33:57.505Z,32.47
2018-06-09T11:34:57.506Z,32.62
2018-06-09T11:35:57.381Z,32.58
2018-06-09T11:36:57.330Z,32.58
2018-06-09T11:37:57.261Z,32.54
2018-06-09T11:38:57.232Z,32.64
2018-06-09T11:39:57.153Z,32.69
2018-06-09T11:40:57.149Z,32.72
2018-06-09T11:41:57.017Z,32.76
2018-06-09T11:42:57.055Z,32.75
2018-06-09T11:43:56.896Z,32.67
2018-06-09T11:44:56.861Z,32.46
2018-06-09T11:45:56.775Z,32.06
2018-06-09T11:46:56.783Z,32.08
2018-06-09T11:47:56.651Z,32.03
2018-06-09T11:48:56.687Z,32.18
2018-06-09T11:49:56.534Z,32.31
2018-06-09T11:50:56.500Z,32.38
2018-06-09T11:51:56.409Z,32.54
2018-06-09T11:52:56.413Z,32.70
2018-06-09T11:53:56.287Z,32.65
2018-06-09T11:54:56.234Z,32.87
2018-06-09T11:55:56.165Z,32.79
2018-06-09T11:56:56.126Z,32.94
2018-06-09T11:57:56.043Z,32.97
2018-06-09T11:58:56.040Z,32.76
2018-06-09T11:59:55.924Z,32.72
2018-06-09T12:00:55.951Z,32.60
2018-06-09T12:01:55.802Z,32.50
2018-06-09T12:02:55.862Z,32.35
2018-06-09T12:03:55.680Z,32.47
2018-06-09T12:04:55.676Z,32.60
2018-06-09T12:05:55.559Z,32.62
2018-06-09T12:06:55.584Z,32.65
2018-06-09T12:07:55.439Z,32.73
2018-06-09T12:08:55.494Z,32.57
2018-06-09T12:09:55.316Z,32.46
2018-06-09T12:10:55.302Z,32.32
2018-06-09T12:11:55.195Z,32.38
2018-06-09T12:12:55.214Z,32.18
2018-06-09T12:13:55.076Z,32.16
2018-06-09T12:14:55.130Z,32.21
2018-06-09T12:15:54.950Z,32.28
2018-06-09T12:16:54.935Z,32.35
2018-06-09T12:17:54.828Z,32.35
2018-06-09T12:18:54.849Z,32.21
2018-06-09T12:19:54.711Z,32.03
2018-06-09T12:20:54.757Z,31.90
2018-06-09T12:21:54.586Z,31.80
2018-06-09T12:22:54.567Z,31.61
2018-06-09T12:23:54.461Z,31.58
2018-06-09T12:24:54.531Z,31.49
2018-06-09T12:25:54.347Z,31.45
2018-06-09T12:26:54.399Z,31.42
2018-06-09T12:27:54.223Z,31.41
2018-06-09T12:28:54.198Z,31.27
2018-06-09T12:29:54.096Z,31.24
2018-06-09T12:30:54.109Z,31.08
2018-06-09T12:31:53.974Z,30.87
2018-06-09T12:32:54.021Z,30.81
2018-06-09T12:33:53.852Z,30.56
2018-06-09T12:34:53.835Z,30.46
2018-06-09T12:35:53.732Z,30.44
2018-06-09T12:36:53.740Z,30.43
2018-06-09T12:37:53.616Z,30.22
2018-06-09T12:38:53.548Z,30.29
2018-06-09T12:39:53.558Z,30.27
2018-06-09T12:40:53.423Z,30.22
2018-06-09T12:41:53.469Z,30.29
2018-06-09T12:42:53.295Z,30.27
2018-06-09T12:43:53.274Z,30.26
2018-06-09T12:44:53.177Z,30.24
2018-06-09T12:45:53.187Z,30.34
2018-06-09T12:46:53.050Z,30.26
2018-06-09T12:47:53.104Z,30.27
2018-06-09T12:48:52.930Z,30.37
2018-06-09T12:49:52.909Z,30.40
2018-06-09T12:50:52.803Z,30.18
2018-06-09T12:51:52.826Z,29.84